createdAt,value
2023-05-22T00:01:16.219Z,16.50
2023-05-22T00:08:39.128Z,17.10
2023-05-22T00:13:33.345Z,16.70
2023-05-22T00:16:00.265Z,18.20
2023-05-22T00:25:50.748Z,17.10
2023-05-22T00:30:45.844Z,16.80
2023-05-22T00:33:12.944Z,18.20
2023-05-22T00:38:08.745Z,17.60
2023-05-22T01:02:47.993Z,18.60
2023-05-22T01:07:46.420Z,18.70
2023-05-22T01:10:13.434Z,18.10
2023-05-22T01:12:54.786Z,18.90
2023-05-22T01:15:57.440Z,17.50
2023-05-22T01:18:55.024Z,16.30
2023-05-22T01:21:30.103Z,17.50
2023-05-22T01:24:27.946Z,17.90
2023-05-22T01:29:41.192Z,17.40
2023-05-22T01:32:10.753Z,16.00
2023-05-22T01:34:39.348Z,17.30
2023-05-22T01:37:07.183Z,16.80
2023-05-22T01:42:02.349Z,15.80
2023-05-22T01:49:28.444Z,16.00
2023-05-22T01:52:02.041Z,17.10
2023-05-22T01:57:10.582Z,16.80
2023-05-22T01:59:49.631Z,17.00
2023-05-22T02:02:19.359Z,16.20
2023-05-22T02:04:56.200Z,16.90
2023-05-22T02:07:25.072Z,15.70
2023-05-22T02:09:55.239Z,16.10
2023-05-22T02:12:23.752Z,16.80
2023-05-22T02:19:45.719Z,18.00
2023-05-22T02:22:15.755Z,16.70
2023-05-22T02:24:47.400Z,17.00
2023-05-22T02:29:44.181Z,17.30
2023-05-22T02:39:33.477Z,18.10
2023-05-22T02:49:24.350Z,17.60
2023-05-22T02:59:13.255Z,17.90
2023-05-22T03:01:40.266Z,17.70
2023-05-22T03:04:07.209Z,17.50
2023-05-22T03:11:31.872Z,15.90
2023-05-22T03:13:58.874Z,15.50
2023-05-22T03:16:26.765Z,15.50
2023-05-22T03:19:11.111Z,16.40
2023-05-22T03:21:38.973Z,15.50
2023-05-22T03:26:34.133Z,15.00
2023-05-22T03:31:32.938Z,17.40
2023-05-22T03:36:37.537Z,17.50
2023-05-22T03:39:05.340Z,17.20
2023-05-22T03:41:37.101Z,17.20
2023-05-22T03:49:01.038Z,17.40
2023-05-22T03:51:27.967Z,17.10
2023-05-22T03:56:22.134Z,15.10
2023-05-22T03:58:50.220Z,15.00
2023-05-22T04:03:45.259Z,15.70
2023-05-22T04:06:13.715Z,17.60
2023-05-22T04:08:40.781Z,17.60
2023-05-22T04:13:35.358Z,15.00
2023-05-22T04:16:03.723Z,17.20
2023-05-22T04:18:30.621Z,16.60
2023-05-22T04:23:24.980Z,17.30
2023-05-22T04:28:22.446Z,17.50
2023-05-22T04:33:18.397Z,17.30
2023-05-22T04:38:13.110Z,17.80
2023-05-22T04:43:08.470Z,15.20
2023-05-22T04:55:34.015Z,15.80
2023-05-22T04:58:01.534Z,15.50
2023-05-22T05:02:57.515Z,15.40
2023-05-22T05:07:53.791Z,17.70
2023-05-22T05:10:20.786Z,15.60
2023-05-22T05:15:15.142Z,15.50
2023-05-22T05:25:08.530Z,16.20
2023-05-22T05:30:04.552Z,16.40
2023-05-22T05:43:10.981Z,17.30
2023-05-22T05:45:38.630Z,16.80
2023-05-22T05:53:02.654Z,17.90
2023-05-22T05:55:29.577Z,18.40
2023-05-22T05:57:57.731Z,19.30
2023-05-22T06:03:06.606Z,18.90
2023-05-22T06:06:03.420Z,19.30
2023-05-22T06:08:48.980Z,18.70
2023-05-22T06:31:09.729Z,18.10
2023-05-22T06:33:37.981Z,19.70
2023-05-22T06:36:05.528Z,20.10
2023-05-22T06:41:00.551Z,20.10
2023-05-22T06:48:39.558Z,19.20
2023-05-22T06:56:24.858Z,21.60
2023-05-22T06:59:12.212Z,21.60
2023-05-22T07:02:02.012Z,21.20
2023-05-22T07:04:52.502Z,20.90
2023-05-22T07:07:33.442Z,19.30
2023-05-22T07:10:00.378Z,19.60
2023-05-22T07:14:57.322Z,20.30
2023-05-22T07:24:49.120Z,22.30
2023-05-22T07:37:14.051Z,21.80
2023-05-22T07:54:34.974Z,21.00
2023-05-22T07:57:03.531Z,21.30
2023-05-22T08:02:02.869Z,22.90
2023-05-22T08:04:30.087Z,24.30
2023-05-22T08:06:57.282Z,21.80
2023-05-22T08:09:24.349Z,23.90
2023-05-22T08:14:18.487Z,25.10
2023-05-22T08:16:45.565Z,24.20
2023-05-22T08:21:40.430Z,22.60
2023-05-22T08:24:08.542Z,23.90
2023-05-22T08:26:36.199Z,25.30
2023-05-22T08:29:03.243Z,24.40
2023-05-22T08:31:30.216Z,24.90
2023-05-22T08:34:02.896Z,23.60
2023-05-22T08:36:31.699Z,25.70
2023-05-22T08:38:58.645Z,25.80
2023-05-22T08:41:25.642Z,24.00
2023-05-22T08:43:52.994Z,24.50
2023-05-22T08:46:20.407Z,24.40
2023-05-22T08:48:48.524Z,24.60
2023-05-22T08:51:19.836Z,26.80
2023-05-22T08:53:51.632Z,26.10
2023-05-22T08:56:19.345Z,26.40
2023-05-22T08:58:46.978Z,26.80
2023-05-22T09:01:14.461Z,27.40
2023-05-22T09:03:41.539Z,27.30
2023-05-22T09:06:10.369Z,27.50
2023-05-22T09:08:38.560Z,28.40
2023-05-22T09:11:05.514Z,27.90
2023-05-22T09:13:32.453Z,28.00
2023-05-22T09:16:10.073Z,28.90
2023-05-22T09:18:38.445Z,28.90
2023-05-22T09:21:17.732Z,28.50
2023-05-22T09:23:54.248Z,28.90
2023-05-22T09:26:21.635Z,28.90
2023-05-22T09:28:48.476Z,28.90
2023-05-22T09:31:15.420Z,29.80
2023-05-22T09:33:44.328Z,29.80
2023-05-22T09:36:11.717Z,30.50
2023-05-22T09:38:39.981Z,29.30
2023-05-22T09:41:06.868Z,30.10
2023-05-22T09:43:34.003Z,30.30
2023-05-22T09:46:02.483Z,30.90
2023-05-22T09:48:29.626Z,30.70
2023-05-22T09:50:59.867Z,30.70
2023-05-22T09:53:31.017Z,30.40
2023-05-22T09:55:59.874Z,29.80
2023-05-22T09:58:30.961Z,30.00
2023-05-22T10:00:59.258Z,29.40
2023-05-22T10:03:27.438Z,29.40
2023-05-22T10:05:58.750Z,29.00
2023-05-22T10:08:28.976Z,29.10
2023-05-22T10:10:56.227Z,28.40
2023-05-22T10:13:25.195Z,28.60
2023-05-22T10:15:53.275Z,28.00
2023-05-22T10:18:20.549Z,28.20
2023-05-22T10:20:48.292Z,27.40
2023-05-22T10:23:18.583Z,28.60
2023-05-22T10:25:46.486Z,29.00
2023-05-22T10:28:24.349Z,29.50
2023-05-22T10:31:00.252Z,28.60
2023-05-22T10:33:56.238Z,29.80
2023-05-22T10:36:34.773Z,30.70
2023-05-22T10:39:26.424Z,29.60
2023-05-22T10:41:53.981Z,29.60
2023-05-22T10:44:22.547Z,28.70
2023-05-22T10:46:50.457Z,29.80
2023-05-22T10:49:23.962Z,29.70
2023-05-22T10:51:57.073Z,29.40
2023-05-22T10:54:43.761Z,29.20
2023-05-22T10:57:16.174Z,29.10
2023-05-22T10:59:44.628Z,29.10
2023-05-22T11:02:31.325Z,30.70
2023-05-22T11:05:17.008Z,29.90
2023-05-22T11:07:43.937Z,29.00
2023-05-22T11:10:11.399Z,29.90
2023-05-22T11:12:38.390Z,29.30
2023-05-22T11:15:08.141Z,29.20
2023-05-22T11:17:44.984Z,29.50
2023-05-22T11:20:22.531Z,28.60
2023-05-22T11:23:01.549Z,28.60
2023-05-22T11:25:29.806Z,29.40
2023-05-22T11:27:57.657Z,28.80
2023-05-22T11:30:28.779Z,29.30
2023-05-22T11:32:58.464Z,30.80
2023-05-22T11:35:26.268Z,32.00
2023-05-22T11:37:54.799Z,30.10
2023-05-22T11:40:26.062Z,30.20
2023-05-22T11:42:53.955Z,31.00
2023-05-22T11:45:21.634Z,30.30
2023-05-22T11:47:49.078Z,31.20
2023-05-22T11:50:22.622Z,29.40
2023-05-22T11:52:54.565Z,30.20
2023-05-22T11:55:22.866Z,29.80
2023-05-22T11:57:49.991Z,29.60
2023-05-22T12:00:17.745Z,29.70
2023-05-22T12:02:46.565Z,32.20
2023-05-22T12:05:14.065Z,31.20
2023-05-22T12:07:41.371Z,31.80
2023-05-22T12:10:08.585Z,32.20
2023-05-22T12:12:35.665Z,31.30
2023-05-22T12:15:06.348Z,32.40
2023-05-22T12:17:37.570Z,30.50
2023-05-22T12:20:06.210Z,32.70
2023-05-22T12:22:33.145Z,31.70
2023-05-22T12:25:00.130Z,32.00
2023-05-22T12:27:33.201Z,32.20
2023-05-22T12:30:10.415Z,32.40
2023-05-22T12:32:37.352Z,32.60
2023-05-22T12:35:04.653Z,32.80
2023-05-22T12:37:34.055Z,32.50
2023-05-22T12:40:04.210Z,32.20
2023-05-22T12:42:31.327Z,32.10
2023-05-22T12:44:59.869Z,30.90
2023-05-22T12:47:27.075Z,31.00
2023-05-22T12:49:53.972Z,30.80
2023-05-22T12:52:20.873Z,30.70
2023-05-22T12:54:47.916Z,31.20
2023-05-22T12:57:16.745Z,32.00
2023-05-22T12:59:44.083Z,31.70
2023-05-22T13:02:10.946Z,30.90
2023-05-22T13:04:37.869Z,30.40
2023-05-22T13:07:04.909Z,30.50
2023-05-22T13:09:31.878Z,33.00
2023-05-22T13:12:00.042Z,30.90
2023-05-22T13:14:27.039Z,31.20
2023-05-22T13:16:54.086Z,31.10
2023-05-22T13:19:21.079Z,31.40
2023-05-22T13:21:47.931Z,31.40
2023-05-22T13:24:15.009Z,30.50
2023-05-22T13:26:41.883Z,30.80
2023-05-22T13:29:08.913Z,30.10
2023-05-22T13:31:37.932Z,30.60
2023-05-22T13:34:05.498Z,29.30
2023-05-22T13:36:32.998Z,30.30
2023-05-22T13:39:00.043Z,30.60
2023-05-22T13:41:27.188Z,30.30
2023-05-22T13:43:54.636Z,30.50
2023-05-22T13:46:22.251Z,29.50
2023-05-22T13:48:49.503Z,30.10
2023-05-22T13:51:16.812Z,30.20
2023-05-22T13:53:43.707Z,29.00
2023-05-22T13:56:10.667Z,30.30
2023-05-22T13:58:37.534Z,30.60
2023-05-22T14:01:04.590Z,31.30
2023-05-22T14:03:31.730Z,31.80
2023-05-22T14:05:58.648Z,30.90
2023-05-22T14:08:25.900Z,32.80
2023-05-22T14:10:52.811Z,31.60
2023-05-22T14:13:19.898Z,32.60
2023-05-22T14:15:47.073Z,32.60
2023-05-22T14:18:16.226Z,32.70
2023-05-22T14:20:43.921Z,33.00
2023-05-22T14:23:11.767Z,33.20
2023-05-22T14:25:42.745Z,33.50
2023-05-22T14:28:13.916Z,33.30
2023-05-22T14:30:40.987Z,33.40
2023-05-22T14:33:08.425Z,33.60
2023-05-22T14:35:35.339Z,33.80
2023-05-22T14:38:02.226Z,34.30
2023-05-22T14:40:29.189Z,35.70
2023-05-22T14:42:56.315Z,34.90
2023-05-22T14:45:23.542Z,35.10
2023-05-22T14:47:50.722Z,35.00
2023-05-22T14:50:20.349Z,35.30
2023-05-22T14:52:48.721Z,34.70
2023-05-22T14:55:16.709Z,36.10
2023-05-22T14:57:43.673Z,36.00
2023-05-22T15:00:12.088Z,33.60
2023-05-22T15:02:39.111Z,35.60
2023-05-22T15:05:07.240Z,34.30
2023-05-22T15:10:05.809Z,34.10
2023-05-22T15:12:33.281Z,33.70
2023-05-22T15:15:01.474Z,34.10
2023-05-22T15:17:28.587Z,36.60
2023-05-22T15:19:55.959Z,36.90
2023-05-22T15:22:22.891Z,35.50
2023-05-22T15:25:04.556Z,35.50
2023-05-22T15:27:32.152Z,35.00
2023-05-22T15:29:59.055Z,34.90
2023-05-22T15:32:26.340Z,34.80
2023-05-22T15:34:53.316Z,35.40
2023-05-22T15:37:20.437Z,36.00
2023-05-22T15:39:47.367Z,36.60
2023-05-22T15:42:14.229Z,36.80
2023-05-22T15:44:41.245Z,36.70
2023-05-22T15:47:08.185Z,36.40
2023-05-22T15:49:35.045Z,36.30
2023-05-22T15:52:02.851Z,36.40
2023-05-22T15:54:29.934Z,36.30
2023-05-22T15:56:57.371Z,36.20
2023-05-22T15:59:24.291Z,36.30
2023-05-22T16:01:51.329Z,36.30
2023-05-22T16:04:18.205Z,36.40
2023-05-22T16:06:45.199Z,36.10
2023-05-22T16:09:12.689Z,35.80
2023-05-22T16:11:39.728Z,36.00
2023-05-22T16:14:06.634Z,36.60
2023-05-22T16:16:33.605Z,36.90
2023-05-22T16:19:00.802Z,37.40
2023-05-22T16:21:27.964Z,37.90
2023-05-22T16:23:54.858Z,37.60
2023-05-22T16:26:22.702Z,37.10
2023-05-22T16:28:49.615Z,36.90
2023-05-22T16:31:19.276Z,36.40
2023-05-22T16:33:46.440Z,37.30
2023-05-22T16:36:13.585Z,36.40
2023-05-22T16:38:40.672Z,38.20
2023-05-22T16:41:07.579Z,36.50
2023-05-22T16:43:34.705Z,36.60
2023-05-22T16:46:01.517Z,36.70
2023-05-22T16:48:28.467Z,38.50
2023-05-22T16:50:55.448Z,36.90
2023-05-22T16:53:22.337Z,37.70
2023-05-22T16:55:49.389Z,37.50
2023-05-22T16:58:16.309Z,36.60
2023-05-22T17:00:43.544Z,38.00
2023-05-22T17:03:12.127Z,37.90
2023-05-22T17:05:39.929Z,36.30
2023-05-22T17:08:07.212Z,37.70
2023-05-22T17:10:34.113Z,36.80
2023-05-22T17:13:00.977Z,36.00
2023-05-22T17:15:27.955Z,37.70
2023-05-22T17:17:54.974Z,37.40
2023-05-22T17:20:25.131Z,35.80
2023-05-22T17:22:52.477Z,35.30
2023-05-22T17:25:19.501Z,34.20
2023-05-22T17:27:46.506Z,34.20
2023-05-22T17:30:13.509Z,32.40
2023-05-22T17:32:40.545Z,32.70
2023-05-22T17:35:07.709Z,31.40
2023-05-22T17:37:34.578Z,29.80
2023-05-22T17:40:01.492Z,31.60
2023-05-22T17:42:28.449Z,31.80
2023-05-22T17:44:55.312Z,32.50
2023-05-22T17:47:22.369Z,32.80
2023-05-22T17:49:49.579Z,33.30
2023-05-22T17:52:16.743Z,33.60
2023-05-22T17:54:43.641Z,34.10
2023-05-22T17:57:10.564Z,33.80
2023-05-22T17:59:39.775Z,34.40
2023-05-22T18:02:08.464Z,34.50
2023-05-22T18:04:36.258Z,33.40
2023-05-22T18:07:03.869Z,34.40
2023-05-22T18:09:30.874Z,35.20
2023-05-22T18:12:02.834Z,33.80
2023-05-22T18:14:29.863Z,33.80
2023-05-22T18:16:58.294Z,33.60
2023-05-22T18:19:25.464Z,33.30
2023-05-22T18:21:53.630Z,33.10
2023-05-22T18:24:25.059Z,33.10
2023-05-22T18:26:52.677Z,33.10
2023-05-22T18:29:19.607Z,33.00
2023-05-22T18:31:46.488Z,32.80
2023-05-22T18:34:13.747Z,32.00
2023-05-22T18:36:43.290Z,31.20
2023-05-22T18:39:11.006Z,30.00
2023-05-22T18:41:38.073Z,28.90
2023-05-22T18:44:05.052Z,26.50
2023-05-22T18:46:31.966Z,25.70
2023-05-22T18:51:26.591Z,27.00
2023-05-22T18:53:53.783Z,24.30
2023-05-22T18:56:21.268Z,23.80
2023-05-22T19:01:17.259Z,23.40
2023-05-22T19:06:12.759Z,25.40
2023-05-22T19:08:40.379Z,23.30
2023-05-22T19:11:07.335Z,22.90
2023-05-22T19:16:05.707Z,24.80
2023-05-22T19:23:29.353Z,22.10
2023-05-22T19:25:58.318Z,23.00
2023-05-22T19:33:27.581Z,22.60
2023-05-22T19:35:55.430Z,21.90
2023-05-22T19:38:23.497Z,22.40
2023-05-22T19:43:17.915Z,22.10
2023-05-22T19:45:45.514Z,22.00
2023-05-22T19:50:41.193Z,21.60
2023-05-22T19:53:08.350Z,21.20
2023-05-22T20:00:31.933Z,20.60
2023-05-22T20:05:26.418Z,19.80
2023-05-22T20:10:21.696Z,21.80
2023-05-22T20:17:47.479Z,19.40
2023-05-22T20:25:09.898Z,19.70
2023-05-22T20:27:37.504Z,21.70
2023-05-22T20:44:49.309Z,19.30
2023-05-22T20:47:16.171Z,20.80
2023-05-22T20:54:41.184Z,19.60
2023-05-22T21:02:04.843Z,18.60
2023-05-22T21:04:31.829Z,19.20
2023-05-22T21:11:53.528Z,20.80
2023-05-22T21:24:10.523Z,20.40
2023-05-22T21:26:37.622Z,17.70
2023-05-22T21:29:05.066Z,17.70
2023-05-22T21:46:22.732Z,17.40
2023-05-22T21:56:11.504Z,18.50
2023-05-22T22:06:00.640Z,16.80
2023-05-22T22:08:28.448Z,17.00
2023-05-22T22:10:56.275Z,16.40
2023-05-22T22:15:50.730Z,16.70
2023-05-22T22:18:17.661Z,17.30
2023-05-22T22:33:02.782Z,18.50
2023-05-22T22:35:29.902Z,16.50
2023-05-22T22:50:16.173Z,16.00
2023-05-22T22:52:46.186Z,17.10
2023-05-22T23:00:13.428Z,17.10
2023-05-22T23:02:40.799Z,16.20
2023-05-22T23:05:08.594Z,15.80
2023-05-22T23:10:03.128Z,17.80
2023-05-22T23:15:02.877Z,18.20
2023-05-22T23:22:24.614Z,17.60
2023-05-22T23:24:51.696Z,17.10
2023-05-22T23:42:23.249Z,16.60
